Millville Municipal Airport Millville US
ICAO: KMIV
IATA: MIV
Category: Medium
Scheduled Services: No

Elevation: 85 ft
TransAlt. 18000 ft.

Airport Communications:
APP/DEP:124.6
ASOS:128.125
CTAF:123.65
RDO:123.65
UNICOM:123

KMIV Zoom In..

Runways:

(A) RW 10 length 6003 ft width 150 ft
ILS 110.90 / hdg 101

(B) RW 14 length 5058 ft width 150 ft
---- / hdg 146

(C) RW 28 length 6003 ft width 150 ft
---- / hdg 281

(D) RW 32 length 5058 ft width 150 ft
---- / hdg 326

Location; KMIV
Day. 25 / Time. 00.54 Zulu
* Altimeter: 30.41
* Temperature: 02° c. 35.6°f.
* Wind from: 000° Speed 00 kn.
Dewpoint: -02° c.
Visibility: 10 Statute Miles.
Clouds: Scattered 12000 ft.

KMIV 250054Z AUTO 00000KT 10SM SCT120 02/M02 A3041 RMK AO2 SLP298 T00171017

Going to: --> -->


Wind - Calm.

 
 
jpsmedia worldairports.se 2020   terms of use